Time;durP1;ratioP1;P1;durP2;ratioP2;P2;SDS_P1;SDS_P2;PMS_P1;PMS_P2;Temp;Humidity;BMP_temperature;BMP_pressure;BME280_temperature;BME280_humidity;BME280_pressure;Samples;Min_cycle;Max_cycle;Signal;HPM_P1;HPM_P2
2022/04/19 00:00:10;;;;;;;23.73;2.15;;;;;;;20.16;50.99;99205.56;7308081;19;130463;-37
2022/04/19 00:02:35;;;;;;;38.90;3.50;;;;;;;20.15;51.54;99206.50;7307898;19;129723;-39
2022/04/19 00:05:00;;;;;;;22.92;1.95;;;;;;;20.15;50.41;99206.50;7308536;19;154184;-34
2022/04/19 00:07:26;;;;;;;24.17;2.25;;;;;;;20.15;50.91;99203.91;7307416;19;129905;-36
2022/04/19 00:09:51;;;;;;;33.13;3.05;;;;;;;20.16;51.40;99192.50;7309203;19;158549;-34
2022/04/19 00:12:17;;;;;;;29.52;2.50;;;;;;;20.04;49.20;99193.59;7316169;19;128965;-32
2022/04/19 00:14:43;;;;;;;30.13;2.77;;;;;;;19.82;48.39;99189.47;7317757;19;129259;-32
2022/04/19 00:17:11;;;;;;;39.65;3.30;;;;;;;19.81;48.47;99187.84;7311847;19;130902;-36
2022/04/19 00:19:36;;;;;;;60.28;5.32;;;;;;;19.72;48.25;99172.22;7312203;19;159271;-38
2022/04/19 00:22:02;;;;;;;29.05;2.35;;;;;;;19.80;48.29;99180.16;7314448;19;138948;-35
2022/04/19 00:24:28;;;;;;;28.05;2.47;;;;;;;19.83;47.89;99175.50;7316674;19;128918;-40
2022/04/19 00:26:55;;;;;;;34.28;2.95;;;;;;;19.87;48.03;99181.25;7315621;19;130292;-37
2022/04/19 00:29:20;;;;;;;40.30;3.42;;;;;;;19.88;47.72;99177.69;7314125;19;129495;-39
2022/04/19 00:31:45;;;;;;;37.90;3.35;;;;;;;19.85;47.19;99165.72;7312779;19;155148;-32
2022/04/19 00:34:11;;;;;;;24.13;2.08;;;;;;;19.86;47.39;99169.16;7317180;19;129348;-35
2022/04/19 00:36:37;;;;;;;22.60;1.92;;;;;;;19.94;47.57;99174.50;7312506;19;158267;-36
2022/04/19 00:39:03;;;;;;;26.58;2.45;;;;;;;19.95;46.85;99168.34;7315604;19;129716;-42
2022/04/19 00:41:28;;;;;;;28.48;2.33;;;;;;;19.93;47.44;99168.47;7311804;19;129790;-35
2022/04/19 00:43:54;;;;;;;27.90;2.47;;;;;;;19.95;47.28;99168.34;7312899;19;153999;-33
2022/04/19 00:46:20;;;;;;;36.53;3.15;;;;;;;19.92;47.42;99168.59;7313964;19;130247;-34
2022/04/19 00:48:45;;;;;;;25.10;2.20;;;;;;;20.15;47.46;99159.53;7310244;19;158746;-35
2022/04/19 00:51:11;;;;;;;27.53;2.53;;;;;;;20.17;48.64;99163.66;7310617;19;153592;-41
2022/04/19 00:53:37;;;;;;;21.60;2.13;;;;;;;20.14;49.28;99163.91;7314730;19;129921;-34
2022/04/19 00:56:03;;;;;;;25.60;2.05;;;;;;;20.14;49.21;99157.88;7315285;19;130135;-38
2022/04/19 00:58:28;;;;;;;25.47;2.30;;;;;;;20.20;50.00;99162.53;7313786;19;129636;-32
2022/04/19 01:00:54;;;;;;;24.30;2.15;;;;;;;20.19;50.43;99156.53;7311829;19;129266;-36
2022/04/19 01:03:22;;;;;;;33.00;3.03;;;;;;;20.15;50.39;99146.47;7314740;19;128946;-40
2022/04/19 01:05:47;;;;;;;25.73;2.20;;;;;;;20.18;50.75;99148.84;7313435;19;129953;-41
2022/04/19 01:08:13;;;;;;;32.17;3.20;;;;;;;20.21;51.22;99148.53;7314214;19;130314;-32
2022/04/19 01:10:42;;;;;;;19.40;1.73;;;;;;;20.21;51.35;99141.50;7312096;19;129126;-36
2022/04/19 01:13:17;;;;;;;29.98;2.72;;;;;;;20.19;51.46;99137.41;7314163;19;130140;-37
2022/04/19 01:15:48;;;;;;;26.25;2.42;;;;;;;20.19;51.77;99142.63;7314111;19;130274;-33
2022/04/19 01:18:14;;;;;;;43.80;3.75;;;;;;;20.20;50.77;99141.66;7312563;19;131889;-37
2022/04/19 01:20:41;;;;;;;25.35;2.38;;;;;;;19.88;48.76;99135.94;7311307;19;128964;-37
2022/04/19 01:23:07;;;;;;;28.10;2.35;;;;;;;19.82;48.29;99136.47;7314544;19;129591;-39
2022/04/19 01:25:33;;;;;;;29.77;2.73;;;;;;;19.76;48.31;99121.41;7315047;19;130982;-33
2022/04/19 01:27:58;;;;;;;26.08;2.10;;;;;;;19.82;47.94;99137.31;7314589;19;129217;-36
2022/04/19 01:30:23;;;;;;;37.10;3.20;;;;;;;19.79;48.16;99121.13;7311664;19;130532;-32
2022/04/19 01:32:49;;;;;;;25.77;2.28;;;;;;;19.88;47.58;99125.50;7312277;19;153558;-36
2022/04/19 01:35:19;;;;;;;41.57;3.57;;;;;;;19.83;47.27;99112.06;7311453;19;158996;-35
2022/04/19 01:37:49;;;;;;;24.45;2.15;;;;;;;19.91;47.16;99113.00;7312891;19;129413;-37
2022/04/19 01:40:16;;;;;;;33.72;3.10;;;;;;;19.93;47.18;99118.09;7311165;19;129155;-34
2022/04/19 01:42:44;;;;;;;25.50;2.20;;;;;;;19.96;47.04;99112.59;7313879;19;129336;-33
2022/04/19 01:45:10;;;;;;;27.10;2.30;;;;;;;19.95;46.81;99110.94;7312219;19;131229;-38
2022/04/19 01:47:35;;;;;;;27.80;2.28;;;;;;;19.96;47.23;99112.59;7312785;19;130238;-34
2022/04/19 01:50:00;;;;;;;42.77;3.33;;;;;;;19.95;47.37;99113.56;7310952;19;149507;-40
2022/04/19 01:52:25;;;;;;;29.17;2.50;;;;;;;19.98;46.85;99115.88;7311608;19;155553;-34
2022/04/19 01:54:51;;;;;;;12.67;1.30;;;;;;;20.22;47.13;99113.63;7312213;19;159210;-38
2022/04/19 01:57:16;;;;;;;30.08;2.60;;;;;;;20.17;48.64;99110.63;7311355;19;158511;-35
2022/04/19 01:59:41;;;;;;;29.20;2.67;;;;;;;20.17;49.63;99108.03;7310695;19;155633;-34
2022/04/19 02:02:07;;;;;;;24.60;2.07;;;;;;;20.20;49.38;99107.72;7311385;19;154158;-37
2022/04/19 02:04:32;;;;;;;23.40;2.33;;;;;;;20.09;50.18;99093.06;7312101;19;158092;-37
2022/04/19 02:06:57;;;;;;;24.07;2.13;;;;;;;20.21;50.54;99109.41;7312457;19;158183;-37
2022/04/19 02:09:22;;;;;;;29.70;2.57;;;;;;;20.20;49.81;99099.91;7311699;19;151948;-33
2022/04/19 02:11:48;;;;;;;27.57;2.67;;;;;;;20.22;50.89;99100.59;7311598;19;154009;-36
2022/04/19 02:14:13;;;;;;;26.07;2.23;;;;;;;20.23;51.55;99110.06;7311915;19;157762;-35
2022/04/19 02:16:38;;;;;;;29.80;2.65;;;;;;;20.23;50.76;99097.03;7312708;19;129594;-34
2022/04/19 02:19:04;;;;;;;24.88;2.17;;;;;;;20.23;51.28;99099.63;7311845;19;155323;-34
2022/04/19 02:21:30;;;;;;;25.35;2.35;;;;;;;20.22;50.88;99092.75;7307554;19;154800;-32
2022/04/19 02:23:55;;;;;;;18.30;1.55;;;;;;;20.22;51.50;99090.97;7313497;19;130097;-37
2022/04/19 02:26:23;;;;;;;22.35;1.98;;;;;;;19.88;48.48;99079.38;7311923;19;132894;-34
2022/04/19 02:28:49;;;;;;;23.00;2.05;;;;;;;19.84;47.84;99082.41;7312833;19;129127;-33
2022/04/19 02:31:14;;;;;;;29.30;2.47;;;;;;;19.85;48.23;99084.06;7308959;19;129022;-39
2022/04/19 02:33:40;;;;;;;32.40;2.90;;;;;;;19.88;48.14;99089.00;7310766;19;130231;-39
2022/04/19 02:36:05;;;;;;;4.68;0.65;;;;;;;19.87;47.99;99079.50;7310126;19;158642;-37
2022/04/19 02:38:30;;;;;;;24.52;2.13;;;;;;;19.90;47.58;99081.84;7312483;19;129591;-37
2022/04/19 02:40:56;;;;;;;21.53;1.97;;;;;;;19.92;47.15;99085.94;7308605;19;154401;-35
2022/04/19 02:43:21;;;;;;;27.25;2.42;;;;;;;19.90;47.83;99084.47;7312108;19;130005;-37
2022/04/19 02:45:46;;;;;;;22.63;2.10;;;;;;;19.92;47.69;99085.94;7309778;19;158535;-41
2022/04/19 02:48:11;;;;;;;29.67;2.53;;;;;;;19.96;47.53;99081.28;7311368;19;129043;-33
2022/04/19 02:50:42;;;;;;;24.70;2.10;;;;;;;19.96;47.52;99076.88;7309193;19;129032;-40
2022/04/19 02:53:08;;;;;;;18.52;1.65;;;;;;;19.98;47.42;99079.34;7312282;19;130257;-34
2022/04/19 02:55:33;;;;;;;42.03;3.58;;;;;;;20.03;46.70;99064.09;7310355;19;129325;-35
2022/04/19 02:57:58;;;;;;;24.90;2.10;;;;;;;20.26;47.48;99068.03;7311023;19;153892;-38
2022/04/19 03:00:24;;;;;;;11.68;1.20;;;;;;;20.20;48.40;99069.41;7310036;19;128929;-34
2022/04/19 03:02:50;;;;;;;34.80;3.03;;;;;;;20.15;49.12;99073.41;7311476;19;129430;-36
2022/04/19 03:05:20;;;;;;;39.93;3.30;;;;;;;20.16;49.75;99068.03;7311772;19;129791;-35
2022/04/19 03:07:46;;;;;;;29.25;2.70;;;;;;;20.19;49.79;99073.00;7311119;19;130294;-39
2022/04/19 03:10:12;;;;;;;27.42;2.60;;;;;;;20.21;50.09;99065.03;7310019;19;128839;-35
2022/04/19 03:12:38;;;;;;;20.17;1.87;;;;;;;20.23;50.61;99060.50;7311348;19;129094;-38
2022/04/19 03:15:04;;;;;;;22.83;2.10;;;;;;;20.25;51.02;99061.16;7311481;19;130417;-33
2022/04/19 03:17:29;;;;;;;24.15;2.20;;;;;;;20.19;50.99;99041.69;7309856;19;129134;-37
2022/04/19 03:19:55;;;;;;;32.35;2.85;;;;;;;20.26;51.24;99060.19;7309584;19;128919;-35
2022/04/19 03:22:20;;;;;;;31.63;2.78;;;;;;;20.19;51.06;99035.63;7310984;19;130394;-36
2022/04/19 03:27:41;;;;;;;23.65;2.40;;;;;;;20.14;49.88;99050.88;7310301;19;128914;-35
2022/04/19 03:30:07;;;;;;;;;;;;;;;19.90;48.32;99060.97;7310598;19;130616;-37
2022/04/19 03:32:32;;;;;;;20.25;1.88;;;;;;;19.85;48.57;99053.56;7310781;19;130029;-39
2022/04/19 03:34:58;;;;;;;29.40;2.40;;;;;;;19.84;47.68;99051.09;7309966;19;158338;-35
2022/04/19 03:37:23;;;;;;;27.48;2.60;;;;;;;19.95;47.82;99053.56;7308442;19;155295;-35
2022/04/19 03:39:48;;;;;;;31.38;2.65;;;;;;;19.91;47.78;99062.63;7309788;19;128971;-34
2022/04/19 03:42:13;;;;;;;34.17;3.20;;;;;;;19.91;47.84;99067.84;7308068;19;154882;-35
2022/04/19 03:44:39;;;;;;;19.03;1.67;;;;;;;19.87;47.53;99056.03;7314566;19;158924;-34
2022/04/19 03:47:07;;;;;;;25.67;2.53;;;;;;;19.97;47.13;99062.03;7314758;19;155371;-35
2022/04/19 03:49:34;;;;;;;23.20;1.98;;;;;;;19.94;47.11;99054.50;7318087;19;131011;-40
2022/04/19 03:52:00;;;;;;;26.08;2.33;;;;;;;19.86;47.55;99038.75;7316305;19;129052;-38
2022/04/19 03:54:25;;;;;;;22.13;1.88;;;;;;;19.97;47.62;99056.81;7318439;19;131022;-36
2022/04/19 03:56:50;;;;;;;18.80;1.98;;;;;;;19.98;47.45;99048.84;7315825;19;129832;-39
2022/04/19 03:59:16;;;;;;;50.53;4.47;;;;;;;20.01;46.92;99052.97;7313933;19;154672;-33
2022/04/19 04:01:41;;;;;;;26.52;2.40;;;;;;;20.13;47.13;99036.19;7313142;19;130157;-32
2022/04/19 04:04:07;;;;;;;17.90;1.57;;;;;;;20.20;48.38;99053.75;7315576;19;158297;-32
2022/04/19 04:06:38;;;;;;;14.23;1.38;;;;;;;20.16;49.75;99046.34;7315529;19;129476;-35
2022/04/19 04:09:04;;;;;;;21.05;1.73;;;;;;;20.21;48.91;99051.97;7316173;19;129637;-38
2022/04/19 04:11:30;;;;;;;29.15;2.63;;;;;;;20.23;49.55;99050.84;7315023;19;129628;-39
2022/04/19 04:13:55;;;;;;;21.75;2.03;;;;;;;20.25;49.96;99053.31;7317493;19;130431;-35
2022/04/19 04:16:21;;;;;;;36.97;3.38;;;;;;;20.24;50.34;99055.13;7315829;19;129694;-36
2022/04/19 04:18:46;;;;;;;21.73;2.03;;;;;;;20.26;50.64;99047.16;7316027;19;154434;-34
2022/04/19 04:21:11;;;;;;;15.47;1.67;;;;;;;20.29;50.93;99057.28;7312734;19;159106;-43
2022/04/19 04:23:36;;;;;;;22.53;2.00;;;;;;;20.28;51.30;99055.66;7315571;19;157355;-36
2022/04/19 04:26:02;;;;;;;34.27;2.83;;;;;;;20.25;50.90;99048.09;7314064;19;154633;-38
2022/04/19 04:28:27;;;;;;;20.58;1.85;;;;;;;20.28;50.20;99050.44;7315192;19;154575;-34
2022/04/19 04:30:52;;;;;;;26.90;2.55;;;;;;;20.07;48.48;99048.00;7312572;19;158359;-37
2022/04/19 04:33:18;;;;;;;23.10;2.43;;;;;;;19.91;48.79;99042.56;7313277;19;158742;-41
2022/04/19 04:35:43;;;;;;;28.58;2.70;;;;;;;19.80;48.23;99034.09;7315934;19;130166;-33
2022/04/19 04:38:08;;;;;;;25.30;2.33;;;;;;;19.92;48.03;99043.38;7312428;19;155104;-46
2022/04/19 04:40:33;;;;;;;28.37;2.50;;;;;;;19.96;47.68;99039.53;7311358;19;158446;-38
2022/04/19 04:42:59;;;;;;;28.77;2.67;;;;;;;19.94;47.89;99046.69;7315822;19;130965;-34
2022/04/19 04:45:25;;;;;;;46.92;4.38;;;;;;;19.94;47.61;99049.28;7312404;19;135465;-42
2022/04/19 04:50:34;;;;;;;30.00;2.72;;;;;;;19.96;47.57;99039.53;7313010;19;129378;-36
2022/04/19 04:53:00;;;;;;;27.27;2.58;;;;;;;19.93;47.39;99045.03;7313031;19;158348;-33
2022/04/19 04:55:25;;;;;;;42.10;4.13;;;;;;;19.99;47.64;99049.69;7311138;19;154791;-35
2022/04/19 04:57:51;;;;;;;27.17;2.53;;;;;;;19.99;47.45;99060.13;7313675;19;129182;-42
2022/04/19 05:00:16;;;;;;;32.22;3.40;;;;;;;20.17;47.03;99069.69;7311512;19;130420;-39
2022/04/19 05:02:44;;;;;;;31.75;3.25;;;;;;;20.17;47.75;99063.66;7312276;19;131053;-34
2022/04/19 05:05:09;;;;;;;41.03;3.80;;;;;;;20.15;49.21;99060.34;7313071;19;129833;-41
2022/04/19 05:07:37;;;;;;;29.13;2.60;;;;;;;20.18;49.82;99063.50;7310732;19;129626;-33
2022/04/19 05:10:03;;;;;;;25.48;2.63;;;;;;;20.16;49.94;99047.16;7310726;19;130435;-34
2022/04/19 05:12:28;;;;;;;39.65;3.55;;;;;;;20.27;50.69;99061.81;7311875;19;129425;-33
2022/04/19 05:14:53;;;;;;;26.73;2.63;;;;;;;20.29;50.57;99054.69;7310863;19;154653;-40
2022/04/19 05:17:18;;;;;;;35.15;3.25;;;;;;;20.28;50.48;99053.03;7312261;19;130058;-36
2022/04/19 05:19:43;;;;;;;42.70;4.27;;;;;;;20.29;50.89;99057.28;7308711;19;139115;-37
2022/04/19 05:22:09;;;;;;;24.63;2.37;;;;;;;20.30;51.12;99054.53;7309697;19;158828;-38
2022/04/19 05:24:34;;;;;;;27.92;2.55;;;;;;;20.28;50.60;99051.25;7312868;19;128870;-34
2022/04/19 05:26:59;;;;;;;17.13;1.63;;;;;;;20.29;51.23;99060.72;7311888;19;154141;-39
2022/04/19 05:29:25;;;;;;;33.47;3.05;;;;;;;20.30;51.33;99064.97;7311581;19;158211;-34
2022/04/19 05:31:50;;;;;;;36.85;3.35;;;;;;;20.02;48.05;99065.88;7312495;19;157259;-32
2022/04/19 05:34:15;;;;;;;24.80;2.30;;;;;;;19.87;48.56;99062.06;7314745;19;141712;-31
2022/04/19 05:36:40;;;;;;;11.37;1.47;;;;;;;19.87;47.57;99069.06;7311806;19;154325;-36
2022/04/19 05:39:06;;;;;;;31.77;2.87;;;;;;;19.90;47.51;99071.41;7312300;19;159100;-43
2022/04/19 05:41:31;;;;;;;21.47;1.67;;;;;;;19.91;47.42;99068.66;7310309;19;158396;-33
2022/04/19 05:43:56;;;;;;;19.90;1.80;;;;;;;19.93;47.47;99071.13;7312717;19;154595;-39
2022/04/19 05:46:21;;;;;;;31.53;3.00;;;;;;;19.90;47.35;99056.56;7312348;19;154000;-35
2022/04/19 05:48:48;;;;;;;28.93;2.60;;;;;;;19.96;47.22;99053.41;7312588;19;159460;-36
2022/04/19 05:51:13;;;;;;;44.93;3.97;;;;;;;19.96;47.17;99055.19;7307778;19;130783;-37
2022/04/19 05:53:39;;;;;;;22.58;2.33;;;;;;;19.95;46.90;99054.34;7313820;19;128951;-39
2022/04/19 05:56:04;;;;;;;41.25;3.15;;;;;;;19.97;47.37;99062.03;7312946;19;130745;-44
2022/04/19 05:58:30;;;;;;;21.95;1.90;;;;;;;20.20;47.78;99064.19;7310801;19;159195;-38
2022/04/19 06:00:55;;;;;;;31.30;3.05;;;;;;;20.09;48.67;99040.03;7308191;19;150435;-36
2022/04/19 06:06:14;;;;;;;37.33;3.47;;;;;;;20.21;50.23;99059.81;7306416;19;128970;-34
2022/04/19 06:08:39;;;;;;;28.33;2.53;;;;;;;20.25;50.21;99050.69;7305279;19;129442;-33
2022/04/19 06:11:05;;;;;;;20.85;1.92;;;;;;;20.28;50.23;99055.66;7306140;19;158753;-37
2022/04/19 06:13:30;;;;;;;26.92;2.58;;;;;;;20.29;50.22;99058.13;7312967;19;128971;-39
2022/04/19 06:15:55;;;;;;;32.58;2.60;;;;;;;20.31;50.58;99065.81;7309258;19;147640;-38
2022/04/19 06:18:21;;;;;;;36.13;3.55;;;;;;;20.30;50.52;99066.75;7308876;19;152881;-36
2022/04/19 06:20:46;;;;;;;29.00;2.77;;;;;;;20.31;50.70;99063.19;7308620;19;130413;-34
2022/04/19 06:23:12;;;;;;;31.25;2.88;;;;;;;20.29;50.72;99067.72;7310554;19;130124;-36
2022/04/19 06:25:37;;;;;;;24.17;2.35;;;;;;;20.32;50.32;99070.06;7310890;19;129231;-39
2022/04/19 06:28:03;;;;;;;21.37;2.00;;;;;;;20.17;49.41;99071.47;7309728;19;159870;-33
2022/04/19 06:30:28;;;;;;;27.10;2.33;;;;;;;19.90;48.58;99071.41;7309984;19;130489;-34
2022/04/19 06:32:54;;;;;;;20.63;1.87;;;;;;;19.83;47.92;99060.72;7311182;19;154643;-37
2022/04/19 06:35:19;;;;;;;48.72;4.45;;;;;;;19.89;48.29;99069.75;7310285;19;133949;-39
2022/04/19 06:37:44;;;;;;;31.02;2.67;;;;;;;19.90;47.36;99076.63;7311085;19;139851;-35
2022/04/19 06:40:10;;;;;;;14.63;1.38;;;;;;;19.92;47.80;99079.91;7309438;19;158545;-39
2022/04/19 06:42:36;;;;;;;29.20;2.67;;;;;;;19.93;47.75;99087.59;7311712;19;129486;-43
2022/04/19 06:45:02;;;;;;;21.83;1.92;;;;;;;19.92;47.70;99082.50;7312790;19;129023;-32
2022/04/19 06:47:27;;;;;;;25.77;2.30;;;;;;;19.94;47.20;99077.97;7311503;19;129254;-39
2022/04/19 06:49:57;;;;;;;57.83;5.00;;;;;;;19.95;47.25;99082.25;7308458;19;130288;-34
2022/04/19 06:52:22;;;;;;;31.77;2.78;;;;;;;19.94;47.11;99084.03;7311695;19;129115;-38
2022/04/19 06:54:47;;;;;;;39.78;3.75;;;;;;;19.99;47.35;99081.00;7311236;19;130015;-36
2022/04/19 06:57:13;;;;;;;27.35;2.70;;;;;;;20.21;46.90;99075.47;7309788;19;158161;-35
2022/04/19 06:59:38;;;;;;;42.40;4.03;;;;;;;20.08;49.27;99064.50;7308719;19;158680;-42
2022/04/19 07:02:03;;;;;;;20.40;2.07;;;;;;;20.18;48.94;99076.56;7306681;19;154509;-37
2022/04/19 07:04:29;;;;;;;27.83;2.63;;;;;;;20.10;49.95;99059.94;7311090;19;130253;-38
2022/04/19 07:06:55;;;;;;;35.97;3.33;;;;;;;20.23;49.88;99073.53;7308896;19;129300;-38
2022/04/19 07:09:21;;;;;;;30.50;2.97;;;;;;;20.26;50.78;99065.41;7310075;19;131007;-40
2022/04/19 07:11:46;;;;;;;38.42;3.35;;;;;;;20.20;49.75;99058.13;7306642;19;154656;-44
2022/04/19 07:14:11;;;;;;;24.73;2.20;;;;;;;20.28;51.28;99079.16;7309512;19;154380;-39
2022/04/19 07:16:36;;;;;;;30.63;2.67;;;;;;;20.30;50.89;99087.63;7308847;19;158441;-39
2022/04/19 07:19:02;;;;;;;37.43;3.57;;;;;;;20.30;50.60;99085.84;7308902;19;159131;-37
2022/04/19 07:26:55;;;;;;;16.52;1.98;;;;;;;20.29;50.17;99080.78;7310212;19;128998;-34
2022/04/19 07:29:21;;;;;;;45.60;3.70;;;;;;;19.92;48.25;99074.69;7308777;19;130686;-32
2022/04/19 07:31:48;;;;;;;26.10;2.60;;;;;;;19.89;48.46;99073.19;7309843;19;129153;-36
2022/04/19 07:34:14;;;;;;;31.33;2.83;;;;;;;19.88;48.25;99068.13;7310600;19;129236;-34
2022/04/19 07:36:42;;;;;;;30.57;2.83;;;;;;;19.88;47.86;99074.16;7308672;19;129217;-32
2022/04/19 07:39:09;;;;;;;25.85;2.30;;;;;;;19.86;47.87;99070.88;7309777;19;129856;-34
2022/04/19 07:41:35;;;;;;;12.25;1.55;;;;;;;19.93;47.25;99092.00;7307271;19;129260;-38
2022/04/19 07:44:01;;;;;;;37.03;3.25;;;;;;;19.94;47.08;99085.81;7307562;19;129064;-40
2022/04/19 07:46:27;;;;;;;23.33;1.83;;;;;;;19.95;47.60;99092.69;7309917;19;129054;-34
2022/04/19 07:48:52;;;;;;;24.33;2.08;;;;;;;19.94;47.16;99088.41;7310000;19;129349;-33
2022/04/19 07:51:18;;;;;;;35.58;3.10;;;;;;;19.98;47.40;99089.78;7306319;19;155962;-34
2022/04/19 07:53:43;;;;;;;23.23;2.38;;;;;;;20.22;47.42;99087.53;7309431;19;130412;-36
2022/04/19 07:56:09;;;;;;;35.67;3.10;;;;;;;20.19;48.86;99093.03;7308482;19;130458;-43
2022/04/19 07:58:35;;;;;;;38.13;3.22;;;;;;;20.16;49.63;99088.13;7307314;19;131109;-40
2022/04/19 08:01:00;;;;;;;24.85;2.28;;;;;;;20.20;49.63;99090.28;7306941;19;129498;-39
2022/04/19 08:03:25;;;;;;;18.38;2.13;;;;;;;20.21;50.23;99088.50;7310636;19;130065;-42
2022/04/19 08:05:51;;;;;;;27.75;2.45;;;;;;;20.27;50.18;99085.31;7306824;19;130201;-37
2022/04/19 08:08:18;;;;;;;36.53;3.38;;;;;;;20.27;50.37;99080.94;7306741;19;129717;-42
2022/04/19 08:10:43;;;;;;;21.83;2.08;;;;;;;20.29;50.27;99078.16;7306794;19;129234;-40
2022/04/19 08:13:09;;;;;;;32.33;2.83;;;;;;;20.29;50.67;99079.00;7308784;19;129146;-40
2022/04/19 08:15:34;;;;;;;37.50;3.22;;;;;;;20.30;50.78;99083.25;7306809;19;129703;-38
2022/04/19 08:17:59;;;;;;;20.25;1.70;;;;;;;20.30;51.44;99091.06;7308241;19;158837;-38
2022/04/19 08:20:25;;;;;;;17.92;1.52;;;;;;;20.31;51.14;99086.69;7305421;19;154500;-39
2022/04/19 08:22:50;;;;;;;29.20;2.78;;;;;;;20.23;50.21;99073.53;7306829;19;153956;-41
2022/04/19 08:25:16;;;;;;;39.85;3.47;;;;;;;19.93;48.04;99086.78;7307123;19;130039;-38
2022/04/19 08:27:45;;;;;;;17.52;2.10;;;;;;;19.90;48.47;99087.88;7306503;19;158718;-37
2022/04/19 08:30:12;;;;;;;25.42;2.28;;;;;;;19.86;47.58;99080.47;7308902;19;129154;-39
2022/04/19 08:32:37;;;;;;;28.83;2.53;;;;;;;19.88;48.00;99083.78;7315772;19;129469;-39
2022/04/19 08:35:03;;;;;;;26.42;2.08;;;;;;;19.90;47.25;99081.84;7316088;19;129412;-41
2022/04/19 08:37:30;;;;;;;27.23;2.38;;;;;;;19.96;47.21;99076.88;7313792;19;131273;-38
2022/04/19 08:39:55;;;;;;;;;;;;;;;19.97;47.16;99072.47;7314961;19;128939;-39
2022/04/19 08:42:20;;;;;;;41.77;3.90;;;;;;;19.93;46.99;99087.59;7312328;19;154517;-39
2022/04/19 08:44:46;;;;;;;13.68;1.40;;;;;;;19.95;46.97;99079.66;7315048;19;138856;-40
2022/04/19 08:47:13;;;;;;;25.85;2.40;;;;;;;19.95;47.49;99074.44;7315196;19;130489;-40
2022/04/19 08:49:41;;;;;;;;;;;;;;;20.21;49.22;99076.25;7315410;19;129897;-38
2022/04/19 08:52:07;;;;;;;15.75;1.55;;;;;;;20.14;49.11;99075.19;7315618;19;129911;-40
2022/04/19 08:57:29;;;;;;;19.95;1.85;;;;;;;20.20;49.82;99079.03;7314555;19;129050;-39
2022/04/19 08:59:54;;;;;;;25.42;2.30;;;;;;;20.23;50.53;99074.34;7313914;19;129493;-34
2022/04/19 09:02:22;;;;;;;34.72;3.00;;;;;;;20.24;50.49;99072.56;7311489;19;152837;-40
2022/04/19 09:04:50;;;;;;;21.30;1.95;;;;;;;20.30;50.11;99069.38;7315671;19;130589;-38
2022/04/19 09:07:16;;;;;;;26.98;2.50;;;;;;;20.29;51.07;99078.16;7313784;19;129151;-39
2022/04/19 09:09:41;;;;;;;28.90;2.60;;;;;;;20.29;50.61;99075.56;7314064;19;129171;-38
2022/04/19 09:12:08;;;;;;;23.88;2.10;;;;;;;20.31;51.50;99084.06;7315013;19;128927;-38
2022/04/19 09:14:33;;;;;;;;;;;;;;;20.33;51.37;99077.72;7315220;19;130249;-39
2022/04/19 09:17:03;;;;;;;21.77;1.90;;;;;;;20.30;51.44;99088.47;7312085;19;158549;-38
2022/04/19 09:19:28;;;;;;;41.83;3.90;;;;;;;20.03;48.59;99077.16;7313524;19;128841;-41
2022/04/19 09:21:53;;;;;;;31.33;2.65;;;;;;;19.88;47.99;99073.34;7311574;19;129561;-40
2022/04/19 09:24:20;;;;;;;28.55;2.53;;;;;;;19.90;47.69;99084.47;7313766;19;129868;-40
2022/04/19 09:26:48;;;;;;;22.75;2.22;;;;;;;19.84;48.23;99072.78;7313282;19;129360;-37
2022/04/19 09:29:27;;;;;;;36.63;2.92;;;;;;;19.87;47.65;99082.09;7313908;19;128832;-35
2022/04/19 09:31:54;;;;;;;30.00;2.58;;;;;;;19.90;48.03;99079.25;7314368;19;129354;-32
2022/04/19 09:34:33;;;;;;;33.92;2.88;;;;;;;19.91;47.80;99076.50;7313838;19;130272;-35
2022/04/19 09:37:13;;;;;;;20.45;1.90;;;;;;;19.93;47.52;99087.59;7312119;19;130443;-35
2022/04/19 09:39:40;;;;;;;25.38;2.17;;;;;;;19.97;47.47;99090.72;7313863;19;129312;-36
2022/04/19 09:42:11;;;;;;;24.20;2.38;;;;;;;19.98;47.03;99079.34;7311852;19;129366;-40
2022/04/19 09:44:41;;;;;;;13.25;1.23;;;;;;;19.97;47.42;99083.75;7313249;19;130276;-40
2022/04/19 09:47:11;;;;;;;24.27;2.00;;;;;;;20.08;47.96;99085.38;7313902;19;130395;-37
2022/04/19 09:49:52;;;;;;;26.38;2.33;;;;;;;20.19;49.09;99083.44;7312572;19;129268;-42
2022/04/19 09:52:20;;;;;;;21.95;2.15;;;;;;;20.16;49.64;99082.91;7313805;19;129687;-33
2022/04/19 09:55:00;;;;;;;29.48;2.63;;;;;;;20.20;50.37;99089.47;7311958;19;158613;-34
2022/04/19 09:57:25;;;;;;;18.83;1.77;;;;;;;20.23;49.47;99081.38;7313486;19;130492;-37
2022/04/19 09:59:52;;;;;;;43.72;3.80;;;;;;;20.27;49.30;99074.88;7310705;19;154956;-34
2022/04/19 10:10:32;;;;;;;18.77;1.67;;;;;;;20.25;50.74;99061.97;7311495;19;129287;-35
2022/04/19 10:12:58;;;;;;;38.60;3.20;;;;;;;20.21;50.49;99051.97;7310455;19;153901;-39
2022/04/19 10:15:23;;;;;;;43.78;3.88;;;;;;;20.28;50.98;99066.09;7310952;19;130068;-34
2022/04/19 10:17:49;;;;;;;26.48;2.20;;;;;;;20.30;50.59;99064.16;7313103;19;141180;-38
2022/04/19 10:20:15;;;;;;;56.65;4.72;;;;;;;19.88;48.62;99052.47;7308939;19;142254;-35
2022/04/19 10:22:48;;;;;;;34.87;2.73;;;;;;;19.88;48.06;99068.13;7309758;19;130414;-34
2022/04/19 10:25:13;;;;;;;28.85;2.60;;;;;;;19.87;48.38;99075.13;7312228;19;130189;-37
2022/04/19 10:27:39;;;;;;;19.85;1.80;;;;;;;19.90;47.93;99071.41;7311787;19;129393;-34
2022/04/19 10:30:06;;;;;;;14.82;1.70;;;;;;;19.79;47.52;99053.31;7309306;19;141889;-32
2022/04/19 10:32:35;;;;;;;33.17;2.65;;;;;;;19.93;47.78;99063.31;7311086;19;129352;-42
2022/04/19 10:35:02;;;;;;;23.25;1.92;;;;;;;19.95;47.85;99070.00;7310014;19;129504;-33
2022/04/19 10:37:27;;;;;;;28.50;2.50;;;;;;;19.94;47.13;99062.31;7310627;19;129180;-31
2022/04/19 10:39:58;;;;;;;11.10;1.15;;;;;;;19.99;47.35;99065.34;7310546;19;128829;-35
2022/04/19 10:42:32;;;;;;;42.15;3.63;;;;;;;19.99;46.80;99076.59;7307928;19;154849;-35
2022/04/19 10:45:18;;;;;;;21.40;1.83;;;;;;;20.02;46.71;99070.25;7309834;19;131428;-34
2022/04/19 10:47:56;;;;;;;30.00;2.38;;;;;;;20.24;47.77;99054.28;7310767;19;130148;-32
2022/04/19 10:50:44;;;;;;;41.78;3.58;;;;;;;20.16;49.60;99064.63;7308267;19;130178;-36
2022/04/19 10:53:10;;;;;;;23.48;1.95;;;;;;;20.14;49.75;99071.75;7307204;19;129428;-37
2022/04/19 10:56:02;;;;;;;45.42;3.78;;;;;;;20.21;51.01;99072.84;7310041;19;130138;-43
2022/04/19 10:58:42;;;;;;;24.20;2.05;;;;;;;20.24;50.85;99080.38;7309778;19;130649;-31
2022/04/19 11:01:28;;;;;;;29.23;2.42;;;;;;;20.27;51.26;99069.66;7307381;19;129019;-34
2022/04/19 11:03:54;;;;;;;40.20;3.53;;;;;;;20.26;50.74;99074.03;7311316;19;129243;-36
2022/04/19 11:06:36;;;;;;;10.93;1.20;;;;;;;20.30;50.85;99079.81;7311722;19;131136;-36
2022/04/19 11:09:06;;;;;;;17.70;1.55;;;;;;;20.30;51.47;99071.97;7311107;19;130456;-33
2022/04/19 11:11:48;;;;;;;24.95;2.28;;;;;;;20.28;51.16;99079.94;7307011;19;130524;-35
2022/04/19 11:14:35;;;;;;;15.40;1.58;;;;;;;20.22;52.01;99066.66;7311376;19;130183;-36
2022/04/19 11:17:23;;;;;;;9.00;1.23;;;;;;;20.14;49.07;99079.56;7311482;19;130547;-39
2022/04/19 11:20:07;;;;;;;32.15;2.70;;;;;;;19.90;48.01;99077.44;7308800;19;130457;-33
2022/04/19 11:22:43;;;;;;;19.25;1.63;;;;;;;19.88;48.56;99081.16;7309364;19;128977;-33
2022/04/19 11:25:09;;;;;;;13.40;1.38;;;;;;;19.79;47.48;99068.94;7311551;19;129377;-38
2022/04/19 11:27:53;;;;;;;23.73;2.05;;;;;;;19.91;47.19;99086.09;7311032;19;130199;-31
2022/04/19 11:30:19;;;;;;;27.35;2.40;;;;;;;19.90;47.76;99097.50;7307918;19;158931;-30
2022/04/19 11:32:56;;;;;;;27.35;2.30;;;;;;;19.90;47.51;99102.72;7310815;19;129974;-32
2022/04/19 11:35:22;;;;;;;52.95;4.47;;;;;;;19.93;48.19;99105.03;7310797;19;128950;-37
2022/04/19 11:37:48;;;;;;;22.67;1.90;;;;;;;19.86;47.04;99083.09;7311662;19;130540;-37
2022/04/19 11:48:48;;;;;;;21.88;1.90;;;;;;;20.21;47.71;99099.75;7310445;19;129215;-36
2022/04/19 11:51:15;;;;;;;26.90;2.20;;;;;;;20.16;48.69;99098.56;7307449;19;129320;-35